Time;durP1;ratioP1;P1;durP2;ratioP2;P2;SDS_P1;SDS_P2;PMS_P1;PMS_P2;Temp;Humidity;BMP_temperature;BMP_pressure;BME280_temperature;BME280_humidity;BME280_pressure;Samples;Min_cycle;Max_cycle;Signal;HPM_P1;HPM_P2
2021/04/04 00:01:46;;;;;;;3.08;2.02;;;;;;;10.95;57.76;100266.16;1761520;81;21187;-51
2021/04/04 00:04:14;;;;;;;3.87;2.00;;;;;;;10.93;57.83;100267.48;1761792;81;21190;-62
2021/04/04 00:06:41;;;;;;;3.75;2.02;;;;;;;10.92;57.82;100274.95;1761785;81;21174;-62
2021/04/04 00:09:10;;;;;;;2.90;1.80;;;;;;;10.92;57.77;100268.38;1761649;81;21158;-62
2021/04/04 00:11:40;;;;;;;3.47;1.50;;;;;;;10.94;57.74;100271.00;1761299;81;21176;-52
2021/04/04 00:14:09;;;;;;;3.02;1.70;;;;;;;10.95;57.55;100266.16;1761696;81;21135;-52
2021/04/04 00:16:38;;;;;;;2.98;1.90;;;;;;;10.95;57.60;100270.11;1761135;81;21138;-62
2021/04/04 00:19:06;;;;;;;3.35;1.82;;;;;;;10.97;57.61;100269.64;1732342;81;21171;-51
2021/04/04 00:21:35;;;;;;;3.45;1.95;;;;;;;10.98;57.54;100265.66;1762376;81;21148;-51
2021/04/04 00:24:07;;;;;;;2.65;1.72;;;;;;;10.97;57.58;100265.23;1762371;81;21629;-51
2021/04/04 00:26:36;;;;;;;3.95;1.62;;;;;;;10.96;57.55;100256.05;1748661;81;21134;-52
2021/04/04 00:29:07;;;;;;;4.33;2.15;;;;;;;10.95;57.50;100263.06;1731058;81;21261;-51
2021/04/04 00:31:35;;;;;;;3.33;1.98;;;;;;;11.01;57.25;100262.12;1731376;82;21199;-52
2021/04/04 00:34:04;;;;;;;4.33;1.70;;;;;;;11.00;57.19;100260.38;1736140;81;21261;-51
2021/04/04 00:36:33;;;;;;;2.20;1.60;;;;;;;11.01;57.17;100266.92;1761824;80;21131;-62
2021/04/04 00:39:03;;;;;;;2.83;1.72;;;;;;;11.04;57.19;100271.72;1761738;81;22016;-51
2021/04/04 00:41:31;;;;;;;3.05;1.65;;;;;;;11.04;57.20;100268.63;1761624;81;21198;-53
2021/04/04 00:43:59;;;;;;;3.37;2.12;;;;;;;11.05;57.12;100262.92;1761228;81;21147;-52
2021/04/04 00:46:26;;;;;;;2.95;1.62;;;;;;;11.05;57.05;100267.73;1759493;81;21158;-56
2021/04/04 00:48:54;;;;;;;3.55;1.70;;;;;;;11.06;56.90;100263.34;1761489;81;21194;-63
2021/04/04 00:51:22;;;;;;;2.98;1.90;;;;;;;11.07;56.94;100260.67;1761490;81;21188;-63
2021/04/04 00:53:51;;;;;;;2.83;1.70;;;;;;;11.08;56.97;100266.83;1755343;81;21621;-63
2021/04/04 00:56:18;;;;;;;3.27;1.67;;;;;;;11.07;56.93;100260.67;1761798;80;21513;-51
2021/04/04 00:58:46;;;;;;;2.08;1.60;;;;;;;11.06;56.79;100243.13;1761429;81;21155;-52
2021/04/04 01:01:14;;;;;;;3.55;1.75;;;;;;;11.09;56.73;100250.13;1761489;80;21162;-63
2021/04/04 01:03:41;;;;;;;3.02;1.55;;;;;;;11.09;56.61;100254.94;1760543;81;21162;-51
2021/04/04 01:06:09;;;;;;;3.42;1.90;;;;;;;11.09;56.59;100254.08;1761861;81;21458;-63
2021/04/04 01:08:37;;;;;;;3.00;1.55;;;;;;;11.08;56.73;100244.44;1761444;81;21171;-51
2021/04/04 01:11:05;;;;;;;2.62;1.50;;;;;;;11.04;56.79;100238.80;1744559;81;21184;-63
2021/04/04 01:13:59;;;;;;;3.12;1.60;;;;;;;11.04;56.72;100237.02;1760997;81;21146;-51
2021/04/04 01:16:38;;;;;;;3.83;2.00;;;;;;;11.06;56.65;100230.42;1761630;81;21127;-52
2021/04/04 01:19:13;;;;;;;3.25;1.40;;;;;;;11.10;56.56;100228.16;1761684;81;21163;-51
2021/04/04 01:21:56;;;;;;;2.80;1.92;;;;;;;11.12;56.45;100231.64;1760552;81;21158;-63
2021/04/04 01:24:46;;;;;;;2.08;1.32;;;;;;;11.11;56.45;100239.98;1731350;82;21186;-51
2021/04/04 01:27:48;;;;;;;3.05;1.67;;;;;;;11.12;56.34;100232.96;1731529;83;21135;-63
2021/04/04 01:30:16;;;;;;;2.45;1.50;;;;;;;11.14;56.29;100233.34;1749072;81;21147;-63
2021/04/04 01:32:46;;;;;;;4.60;1.95;;;;;;;11.15;56.21;100242.12;1760817;81;21111;-52
2021/04/04 01:35:16;;;;;;;2.83;1.43;;;;;;;11.13;56.25;100236.02;1759687;81;21293;-63
2021/04/04 01:37:44;;;;;;;2.52;1.72;;;;;;;11.13;56.16;100228.97;1759549;81;21661;-53
2021/04/04 01:40:16;;;;;;;2.75;1.82;;;;;;;11.13;56.13;100227.66;1738076;81;21192;-53
2021/04/04 01:42:44;;;;;;;2.30;1.60;;;;;;;11.15;56.16;100223.69;1733324;81;21183;-52
2021/04/04 01:45:13;;;;;;;2.50;1.67;;;;;;;11.15;56.26;100232.91;1761380;81;21155;-53
2021/04/04 01:47:42;;;;;;;3.33;1.40;;;;;;;11.13;56.21;100233.38;1762005;81;21127;-63
2021/04/04 01:50:11;;;;;;;3.10;1.47;;;;;;;11.12;56.22;100230.33;1731547;82;21188;-52
2021/04/04 01:52:39;;;;;;;3.92;2.10;;;;;;;11.11;56.23;100230.76;1731532;83;21174;-63
2021/04/04 01:55:08;;;;;;;2.83;1.60;;;;;;;11.12;56.17;100235.59;1759401;81;21151;-63
2021/04/04 01:57:36;;;;;;;2.80;1.67;;;;;;;11.10;56.12;100234.28;1751579;81;21154;-52
2021/04/04 02:00:12;;;;;;;2.95;1.70;;;;;;;11.10;56.15;100231.66;1729720;82;21159;-63
2021/04/04 02:02:42;;;;;;;2.37;1.62;;;;;;;11.10;56.11;100230.80;1748215;81;21163;-52
2021/04/04 02:05:10;;;;;;;2.72;1.70;;;;;;;11.12;56.00;100231.64;1761488;81;21157;-63
2021/04/04 02:07:46;;;;;;;3.12;1.70;;;;;;;11.12;56.04;100240.86;1761269;81;21127;-63
2021/04/04 02:10:16;;;;;;;2.90;1.57;;;;;;;11.10;56.00;100235.60;1761409;81;21173;-53
2021/04/04 02:12:44;;;;;;;2.95;1.80;;;;;;;11.08;56.03;100234.76;1761017;81;21115;-63
2021/04/04 02:15:14;;;;;;;2.37;1.52;;;;;;;11.10;56.02;100240.87;1757912;81;21181;-63
2021/04/04 02:17:44;;;;;;;3.37;1.90;;;;;;;11.09;56.06;100238.28;1729892;83;21207;-53
2021/04/04 02:20:15;;;;;;;3.05;1.67;;;;;;;11.08;56.03;100232.59;1730981;81;21216;-63
2021/04/04 02:22:43;;;;;;;3.05;1.65;;;;;;;11.07;56.02;100238.28;1761118;81;21573;-63
2021/04/04 02:25:12;;;;;;;2.92;1.70;;;;;;;11.06;56.03;100240.96;1748923;81;21182;-63
2021/04/04 02:27:42;;;;;;;2.35;1.42;;;;;;;11.04;55.96;100236.16;1730082;82;21598;-63
2021/04/04 02:30:12;;;;;;;2.98;2.05;;;;;;;11.03;56.01;100239.27;1729781;82;21143;-63
2021/04/04 02:32:46;;;;;;;3.00;1.70;;;;;;;11.04;55.98;100240.11;1757779;81;21566;-63
2021/04/04 02:35:19;;;;;;;2.70;1.85;;;;;;;11.00;55.93;100236.21;1739922;81;21179;-53
2021/04/04 02:37:46;;;;;;;3.62;2.02;;;;;;;11.00;55.91;100234.90;1762436;81;21133;-63
2021/04/04 02:40:15;;;;;;;3.90;1.50;;;;;;;11.00;56.00;100235.36;1750582;81;21194;-63
2021/04/04 02:42:43;;;;;;;3.35;1.65;;;;;;;10.97;55.99;100232.77;1743178;81;21138;-63
2021/04/04 02:45:13;;;;;;;2.40;1.62;;;;;;;10.96;55.92;100238.47;1761208;81;21151;-54
2021/04/04 02:48:02;;;;;;;2.62;1.80;;;;;;;10.94;55.96;100244.67;1761694;81;21470;-53
2021/04/04 02:50:30;;;;;;;2.72;1.70;;;;;;;10.92;56.01;100247.31;1760377;81;21126;-52
2021/04/04 02:53:00;;;;;;;3.15;1.85;;;;;;;10.89;55.95;100243.41;1760986;81;21099;-53
2021/04/04 02:55:35;;;;;;;3.15;1.75;;;;;;;10.88;56.00;100242.12;1761625;81;21570;-52
2021/04/04 02:58:06;;;;;;;2.08;1.50;;;;;;;10.87;56.04;100243.87;1744563;81;21163;-52
2021/04/04 03:00:35;;;;;;;2.60;1.70;;;;;;;10.86;56.02;100243.02;1753619;81;21562;-52
2021/04/04 03:03:04;;;;;;;2.10;1.50;;;;;;;10.87;56.09;100234.66;1761683;81;21139;-52
2021/04/04 03:05:34;;;;;;;3.37;1.75;;;;;;;10.84;56.08;100234.28;1761506;81;21492;-52
2021/04/04 03:08:03;;;;;;;3.17;1.90;;;;;;;10.85;56.12;100236.02;1761791;81;21131;-53
2021/04/04 03:10:32;;;;;;;2.98;1.67;;;;;;;10.86;56.09;100230.29;1760426;80;21162;-53
2021/04/04 03:12:59;;;;;;;2.98;1.70;;;;;;;10.85;56.01;100237.77;1761691;81;21151;-53
2021/04/04 03:15:28;;;;;;;2.60;1.70;;;;;;;10.83;55.95;100237.80;1761432;81;21131;-52
2021/04/04 03:17:55;;;;;;;2.92;1.95;;;;;;;10.84;56.00;100238.66;1760929;81;21170;-52
2021/04/04 03:20:25;;;;;;;2.72;1.95;;;;;;;10.84;56.03;100245.23;1750707;81;21301;-63
2021/04/04 03:22:53;;;;;;;2.35;1.55;;;;;;;10.82;56.20;100242.64;1748062;82;21621;-62
2021/04/04 03:25:20;;;;;;;2.98;1.65;;;;;;;10.81;56.31;100250.13;1737593;82;21315;-63
2021/04/04 03:27:48;;;;;;;2.72;1.55;;;;;;;10.75;56.31;100240.14;1748054;81;21162;-51
2021/04/04 03:33:06;;;;;;;3.75;1.80;;;;;;;10.69;56.63;100238.02;1739567;82;21107;-51
2021/04/04 03:35:34;;;;;;;3.90;1.95;;;;;;;10.73;56.72;100241.92;1747996;81;21176;-51
2021/04/04 03:38:04;;;;;;;3.30;1.95;;;;;;;10.76;56.77;100241.88;1733735;82;21179;-63
2021/04/04 03:40:31;;;;;;;3.67;1.90;;;;;;;10.78;56.75;100244.90;1736943;82;21219;-63
2021/04/04 03:43:01;;;;;;;4.55;2.37;;;;;;;10.78;56.79;100243.58;1753363;82;21166;-63
2021/04/04 03:45:29;;;;;;;4.45;1.70;;;;;;;10.77;56.89;100241.84;1724667;82;21678;-63
2021/04/04 03:47:58;;;;;;;3.00;1.52;;;;;;;10.76;56.91;100248.00;1714483;82;21103;-53
2021/04/04 03:50:25;;;;;;;3.35;2.00;;;;;;;10.73;57.07;100245.41;1744921;82;21177;-63
2021/04/04 03:52:53;;;;;;;6.60;2.22;;;;;;;10.74;57.37;100254.20;1748036;82;21127;-64
2021/04/04 03:55:23;;;;;;;4.12;1.85;;;;;;;10.71;57.26;100256.41;1747203;82;21147;-64
2021/04/04 03:57:50;;;;;;;3.42;2.08;;;;;;;10.81;56.98;100267.70;1715327;82;21852;-64
2021/04/04 04:00:24;;;;;;;2.92;1.82;;;;;;;10.86;56.80;100267.15;1748217;81;21270;-53
2021/04/04 04:02:51;;;;;;;3.55;1.87;;;;;;;10.91;56.75;100270.59;1730924;82;21587;-53
2021/04/04 04:05:22;;;;;;;4.50;2.15;;;;;;;10.91;56.63;100276.31;1713994;82;21155;-50
2021/04/04 04:07:52;;;;;;;3.98;1.95;;;;;;;10.92;56.69;100282.86;1733214;82;21091;-51
2021/04/04 04:10:19;;;;;;;7.42;2.60;;;;;;;10.94;56.65;100277.13;1669084;85;21281;-51
2021/04/04 04:12:47;;;;;;;4.97;2.37;;;;;;;10.95;56.56;100277.55;1732286;82;21151;-64
2021/04/04 04:15:17;;;;;;;5.03;2.30;;;;;;;10.96;56.61;100270.08;1732761;81;21072;-64
2021/04/04 04:17:46;;;;;;;5.92;2.37;;;;;;;10.95;56.62;100272.28;1669409;85;21103;-64
2021/04/04 04:20:14;;;;;;;4.90;2.20;;;;;;;10.92;56.69;100264.43;1732664;82;21103;-63
2021/04/04 04:22:43;;;;;;;3.05;2.02;;;;;;;10.83;56.99;100269.83;1673078;84;21170;-64
2021/04/04 04:25:11;;;;;;;4.37;2.10;;;;;;;10.80;57.09;100266.81;1734459;82;21561;-51
2021/04/04 04:27:41;;;;;;;5.42;2.40;;;;;;;10.85;56.97;100270.67;1697045;84;21123;-51
2021/04/04 04:30:10;;;;;;;3.33;2.15;;;;;;;10.88;56.86;100277.21;1732703;82;21193;-50
2021/04/04 04:32:40;;;;;;;4.47;2.72;;;;;;;10.85;56.85;100279.46;1729592;81;21131;-63
2021/04/04 04:35:09;;;;;;;5.55;2.30;;;;;;;10.70;57.29;100284.51;1727842;82;21539;-53
2021/04/04 04:37:38;;;;;;;5.17;1.67;;;;;;;10.77;57.10;100288.37;1732452;82;21140;-64
2021/04/04 04:40:09;;;;;;;7.42;2.20;;;;;;;10.70;57.09;100289.77;1731848;82;21168;-64
2021/04/04 04:42:41;;;;;;;;;;;;;;;10.76;57.03;100289.27;1739483;82;21092;-52
2021/04/04 04:45:23;;;;;;;5.15;1.90;;;;;;;10.82;57.13;100290.03;1734119;82;20174;-53
2021/04/04 04:47:53;;;;;;;3.85;2.00;;;;;;;10.81;57.25;100293.56;1747753;82;21254;-63
2021/04/04 04:50:21;;;;;;;5.80;2.40;;;;;;;10.87;57.18;100297.86;1747907;81;21153;-54
2021/04/04 04:52:50;;;;;;;8.90;3.58;;;;;;;10.93;56.93;100291.64;1747780;81;21123;-63
2021/04/04 04:55:18;;;;;;;5.45;2.58;;;;;;;10.98;56.79;100293.30;1748109;81;21128;-63
2021/04/04 04:57:47;;;;;;;6.67;2.00;;;;;;;11.05;56.66;100293.22;1748117;82;21151;-63
2021/04/04 05:00:16;;;;;;;6.30;2.25;;;;;;;11.15;56.47;100293.50;1747917;82;21146;-63
2021/04/04 05:02:44;;;;;;;4.50;2.22;;;;;;;11.19;56.42;100300.89;1747857;81;21646;-63
2021/04/04 05:05:14;;;;;;;5.30;2.33;;;;;;;11.27;56.24;100304.28;1690823;82;21177;-63
2021/04/04 05:07:44;;;;;;;120.87;73.75;;;;;;;11.34;56.08;100295.81;1725921;82;21710;-63
2021/04/04 05:10:13;;;;;;;56.05;34.15;;;;;;;11.38;56.09;100301.02;1730815;81;21159;-62
2021/04/04 05:12:53;;;;;;;728.00;533.98;;;;;;;11.44;56.03;100296.97;1732736;82;21111;-54
2021/04/04 05:15:26;;;;;;;248.68;155.30;;;;;;;11.60;58.59;100301.95;1728201;82;21153;-51
2021/04/04 05:17:54;;;;;;;126.25;79.17;;;;;;;11.77;57.72;100297.69;1738535;81;21626;-51
2021/04/04 05:20:22;;;;;;;61.02;38.98;;;;;;;11.80;57.16;100301.59;1731544;81;21176;-51
2021/04/04 05:22:49;;;;;;;38.78;23.70;;;;;;;11.79;56.84;100302.48;1742422;81;21178;-52
2021/04/04 05:25:18;;;;;;;27.65;18.37;;;;;;;11.82;56.61;100311.66;1760459;81;21161;-52
2021/04/04 05:27:45;;;;;;;25.30;15.85;;;;;;;11.82;56.35;100311.66;1761264;81;21091;-52
2021/04/04 05:30:15;;;;;;;15.70;9.93;;;;;;;11.77;56.38;100309.55;1760768;81;21146;-52
2021/04/04 05:32:47;;;;;;;11.05;7.20;;;;;;;11.73;56.25;100303.91;1761472;81;21159;-51
2021/04/04 05:35:20;;;;;;;9.58;6.20;;;;;;;11.67;56.20;100315.45;1761749;81;21143;-51
2021/04/04 05:37:51;;;;;;;6.55;4.45;;;;;;;11.67;56.18;100314.59;1763371;81;21134;-51
2021/04/04 05:40:23;;;;;;;6.22;3.70;;;;;;;11.63;56.26;100312.45;1731423;83;21551;-63
2021/04/04 05:43:03;;;;;;;4.33;2.75;;;;;;;11.69;56.13;100308.38;1790482;77;22597;-61
2021/04/04 05:45:56;;;;;;;4.90;2.80;;;;;;;11.62;56.12;100310.70;1761326;80;21336;-62
2021/04/04 05:48:44;;;;;;;3.65;1.77;;;;;;;11.69;55.96;100304.89;1758011;81;21141;-63
2021/04/04 05:51:44;;;;;;;3.30;1.75;;;;;;;11.68;55.88;100301.84;1755870;81;21141;-63
2021/04/04 05:54:20;;;;;;;3.90;2.22;;;;;;;11.63;55.97;100315.55;1754641;80;21280;-62
2021/04/04 05:56:51;;;;;;;5.30;3.20;;;;;;;11.60;56.03;100317.77;1761919;81;21546;-63
2021/04/04 05:59:38;;;;;;;5.90;4.00;;;;;;;11.64;56.10;100321.24;1761347;81;21181;-54
2021/04/04 06:02:17;;;;;;;7.25;3.85;;;;;;;11.65;56.05;100325.62;1733268;81;21628;-63
2021/04/04 06:05:02;;;;;;;4.45;2.75;;;;;;;11.67;56.24;100323.36;1759730;80;21138;-63
2021/04/04 06:08:09;;;;;;;5.90;2.70;;;;;;;11.72;56.24;100324.16;1762199;81;21165;-51
2021/04/04 06:11:19;;;;;;;7.42;3.50;;;;;;;11.77;56.24;100328.02;1760984;80;21150;-62
2021/04/04 06:14:24;;;;;;;7.58;2.67;;;;;;;11.82;56.25;100335.39;1760015;80;21137;-51
2021/04/04 06:17:19;;;;;;;4.90;2.25;;;;;;;11.89;56.19;100330.90;1746655;81;21142;-51
2021/04/04 06:20:42;;;;;;;6.15;2.10;;;;;;;11.96;56.01;100337.77;1761012;81;21137;-64
2021/04/04 06:23:49;;;;;;;2.17;1.30;;;;;;;12.00;56.10;100332.89;1748093;81;21131;-62
2021/04/04 06:26:40;;;;;;;2.60;1.37;;;;;;;12.05;56.03;100333.68;1696757;82;21183;-53
2021/04/04 06:29:35;;;;;;;4.28;1.17;;;;;;;12.12;55.90;100336.20;1731654;83;21173;-62
2021/04/04 06:32:11;;;;;;;12.68;5.42;;;;;;;12.22;56.24;100336.45;1757540;80;21210;-52
2021/04/04 06:34:49;;;;;;;19.20;7.80;;;;;;;12.43;57.47;100339.11;1731971;82;21581;-63
2021/04/04 06:37:54;;;;;;;32.67;12.40;;;;;;;12.54;57.72;100331.42;1734478;81;21190;-64
2021/04/04 06:40:26;;;;;;;25.65;9.63;;;;;;;12.64;57.99;100336.89;1715455;82;21162;-52
2021/04/04 06:43:52;;;;;;;8.68;4.00;;;;;;;12.77;58.00;100338.84;1701490;83;21448;-63
2021/04/04 06:46:46;;;;;;;9.75;4.12;;;;;;;12.85;57.83;100330.73;1740136;82;21676;-52
2021/04/04 06:49:51;;;;;;;8.65;3.90;;;;;;;12.92;57.78;100338.48;1746622;81;21316;-52
2021/04/04 06:52:54;;;;;;;5.35;2.40;;;;;;;13.02;57.80;100338.27;1734953;82;21222;-51
2021/04/04 06:55:47;;;;;;;4.75;2.20;;;;;;;13.12;57.76;100335.84;1748416;82;21175;-52
2021/04/04 06:58:35;;;;;;;18.85;5.50;;;;;;;13.24;57.78;100334.67;1736289;81;21151;-51
2021/04/04 07:01:46;;;;;;;3.47;1.20;;;;;;;13.34;57.84;100332.67;1725942;81;21336;-52
2021/04/04 07:04:45;;;;;;;4.65;1.40;;;;;;;13.47;57.93;100333.26;1746550;82;21570;-52
2021/04/04 07:08:02;;;;;;;3.35;1.35;;;;;;;13.55;57.29;100340.55;1755302;81;21099;-52
2021/04/04 07:11:11;;;;;;;2.05;0.72;;;;;;;13.63;56.92;100349.63;1737455;82;21179;-52
2021/04/04 07:14:00;;;;;;;2.33;0.80;;;;;;;13.69;56.92;100348.13;1737450;82;21579;-53
2021/04/04 07:17:14;;;;;;;2.45;0.82;;;;;;;13.75;56.50;100351.09;1738619;81;21104;-52
2021/04/04 07:20:09;;;;;;;1.98;0.93;;;;;;;13.76;56.45;100352.35;1718364;82;21301;-52
2021/04/04 07:23:04;;;;;;;1.92;0.93;;;;;;;13.74;56.12;100357.28;1718510;83;21611;-52
2021/04/04 07:25:38;;;;;;;1.52;0.75;;;;;;;13.75;56.15;100355.05;1747088;81;21195;-51
2021/04/04 07:28:30;;;;;;;1.32;0.60;;;;;;;13.77;56.00;100357.20;1746033;82;21349;-53
2021/04/04 07:30:59;;;;;;;2.90;0.82;;;;;;;13.79;56.12;100360.68;1747990;81;21517;-52
2021/04/04 07:33:51;;;;;;;5.08;2.00;;;;;;;13.85;56.06;100367.58;1748067;82;21147;-52
2021/04/04 07:36:37;;;;;;;2.12;0.98;;;;;;;13.92;56.15;100367.37;1773971;81;21196;-63
2021/04/04 07:39:37;;;;;;;1.10;0.70;;;;;;;14.01;55.68;100366.71;1749991;81;21158;-62
2021/04/04 07:42:27;;;;;;;1.07;0.60;;;;;;;13.98;55.73;100364.56;1743731;82;21721;-63
2021/04/04 07:45:04;;;;;;;1.32;0.93;;;;;;;14.03;55.77;100359.61;1755268;80;21575;-62
2021/04/04 07:48:11;;;;;;;2.20;0.88;;;;;;;14.11;55.59;100364.24;1749255;81;21114;-53
2021/04/04 07:50:58;;;;;;;5.05;1.72;;;;;;;14.20;55.44;100361.34;1748786;82;21134;-52
2021/04/04 07:53:35;;;;;;;4.85;2.55;;;;;;;14.32;55.38;100360.13;1747293;80;21163;-52
2021/04/04 07:56:08;;;;;;;3.20;1.72;;;;;;;14.46;55.50;100359.73;1742920;82;21328;-52
2021/04/04 07:58:38;;;;;;;6.03;1.98;;;;;;;14.60;55.24;100364.62;1750402;82;21546;-54
2021/04/04 08:01:13;;;;;;;4.10;1.70;;;;;;;14.73;55.34;100359.89;1756833;80;21511;-53
2021/04/04 08:04:03;;;;;;;2.02;1.02;;;;;;;14.84;55.18;100361.73;1755590;81;21785;-54
2021/04/04 08:06:51;;;;;;;2.85;1.10;;;;;;;14.95;55.06;100357.89;1756189;81;21110;-62
2021/04/04 08:10:10;;;;;;;2.30;1.22;;;;;;;15.02;54.97;100362.94;1741062;82;21625;-60
2021/04/04 08:13:00;;;;;;;2.65;1.00;;;;;;;15.16;54.70;100362.54;1749274;81;21178;-62
2021/04/04 08:16:06;;;;;;;2.83;1.50;;;;;;;15.26;54.20;100368.41;1709157;82;21577;-62
2021/04/04 08:18:35;;;;;;;1.52;0.80;;;;;;;15.25;53.95;100362.69;1738578;82;21330;-62
2021/04/04 08:21:08;;;;;;;3.58;1.05;;;;;;;15.28;53.11;100372.32;1757299;80;21173;-62
2021/04/04 08:23:49;;;;;;;2.02;0.70;;;;;;;15.24;53.21;100372.89;1756235;82;21554;-62
2021/04/04 08:26:29;;;;;;;;;;;;;;;15.27;53.20;100370.14;1758892;81;21665;-61
2021/04/04 08:29:07;;;;;;;1.17;0.60;;;;;;;15.28;53.10;100371.88;1756443;81;20252;-53
2021/04/04 08:31:39;;;;;;;1.45;0.90;;;;;;;15.31;52.93;100373.11;1734079;82;21619;-53
2021/04/04 08:34:18;;;;;;;1.87;0.82;;;;;;;15.35;52.83;100373.02;1756223;82;21138;-53
2021/04/04 08:36:56;;;;;;;1.47;0.80;;;;;;;15.43;52.81;100370.98;1755194;80;21126;-53
2021/04/04 08:39:27;;;;;;;1.80;0.78;;;;;;;15.52;52.62;100368.00;1760340;80;21142;-54
2021/04/04 08:41:56;;;;;;;1.00;0.60;;;;;;;15.56;52.47;100367.46;1753272;81;21359;-55
2021/04/04 08:44:34;;;;;;;3.60;0.90;;;;;;;15.56;52.40;100369.64;1741331;82;21200;-53
2021/04/04 08:47:24;;;;;;;1.60;0.70;;;;;;;15.59;52.15;100371.34;1741062;82;21543;-53
2021/04/04 08:49:51;;;;;;;0.97;0.60;;;;;;;15.61;51.96;100370.83;1753428;82;21635;-53
2021/04/04 08:52:27;;;;;;;1.30;0.70;;;;;;;15.58;51.71;100373.11;1715188;82;21884;-52
2021/04/04 08:54:55;;;;;;;1.32;0.95;;;;;;;15.56;51.61;100364.81;1715873;82;21180;-52
2021/04/04 08:57:45;;;;;;;1.10;0.60;;;;;;;15.48;51.18;100374.80;1740740;82;21180;-53
2021/04/04 09:00:15;;;;;;;1.65;1.15;;;;;;;15.30;50.78;100375.34;1733800;82;21606;-53
2021/04/04 09:02:57;;;;;;;3.52;1.90;;;;;;;15.13;50.28;100384.28;1714542;83;21591;-52
2021/04/04 09:05:27;;;;;;;1.70;1.20;;;;;;;14.96;50.63;100386.13;1723106;82;21159;-62
2021/04/04 09:08:01;;;;;;;2.27;0.80;;;;;;;14.87;50.77;100385.48;1694556;84;21176;-61
2021/04/04 09:10:33;;;;;;;3.80;2.77;;;;;;;14.87;51.00;100388.61;1730379;82;21658;-62
2021/04/04 09:13:09;;;;;;;4.62;2.30;;;;;;;14.81;50.54;100391.44;1746264;82;21127;-62
2021/04/04 09:15:54;;;;;;;6.47;4.75;;;;;;;14.68;50.93;100391.76;1726106;82;21164;-62
2021/04/04 09:18:25;;;;;;;3.98;2.40;;;;;;;14.61;51.18;100395.97;1731434;82;21482;-62
2021/04/04 09:21:07;;;;;;;2.00;1.50;;;;;;;14.58;51.09;100394.25;1746624;82;21551;-62
2021/04/04 09:23:37;;;;;;;1.47;1.00;;;;;;;14.57;51.11;100396.52;1744883;82;21560;-63
2021/04/04 09:26:10;;;;;;;1.12;0.75;;;;;;;14.54;50.69;100397.94;1723847;82;21572;-63
2021/04/04 09:28:45;;;;;;;1.00;0.70;;;;;;;14.44;50.60;100409.22;1723097;82;21104;-62
2021/04/04 09:31:28;;;;;;;2.17;1.50;;;;;;;14.29;50.77;100394.62;1714097;83;21336;-61
2021/04/04 09:34:05;;;;;;;3.72;2.27;;;;;;;14.19;50.83;100398.43;1719851;82;21143;-63
2021/04/04 09:36:48;;;;;;;1.87;1.30;;;;;;;14.08;51.31;100401.38;1717396;82;21600;-63
2021/04/04 09:39:29;;;;;;;0.90;0.72;;;;;;;14.05;51.66;100404.09;1715480;83;21137;-63
2021/04/04 09:41:58;;;;;;;1.07;0.90;;;;;;;14.06;51.62;100401.43;1722884;82;21625;-63
2021/04/04 09:44:32;;;;;;;1.25;0.72;;;;;;;14.08;51.59;100411.95;1722384;82;21597;-62
2021/04/04 09:47:01;;;;;;;1.42;0.88;;;;;;;14.05;51.74;100404.98;1748188;82;21669;-62
2021/04/04 09:49:42;;;;;;;1.30;0.88;;;;;;;14.04;51.58;100408.98;1753424;82;21146;-61
2021/04/04 09:52:27;;;;;;;1.40;0.90;;;;;;;14.04;51.67;100412.51;1760584;80;21198;-63
2021/04/04 09:55:23;;;;;;;2.08;1.32;;;;;;;14.05;51.78;100404.98;1720302;81;21500;-63
2021/04/04 09:57:55;;;;;;;1.45;0.90;;;;;;;14.08;52.03;100404.91;1682449;83;21636;-62
2021/04/04 10:00:41;;;;;;;0.95;0.70;;;;;;;14.04;50.69;100410.30;1689331;82;21147;-63
2021/04/04 10:03:33;;;;;;;1.95;0.95;;;;;;;13.82;50.81;100407.75;1710054;83;21163;-64
2021/04/04 10:06:03;;;;;;;0.93;0.60;;;;;;;13.73;51.28;100409.30;1644969;87;21595;-63
2021/04/04 10:08:31;;;;;;;0.68;0.60;;;;;;;13.68;51.18;100405.46;1587737;87;21354;-64
2021/04/04 10:11:00;;;;;;;1.30;0.80;;;;;;;13.66;51.39;100410.39;1634932;87;21181;-64
2021/04/04 10:13:30;;;;;;;1.30;0.70;;;;;;;13.63;51.50;100406.49;1628177;88;21180;-64
2021/04/04 10:15:58;;;;;;;1.25;0.70;;;;;;;13.61;51.66;100410.48;1639449;87;21195;-63
2021/04/04 10:18:27;;;;;;;1.27;0.70;;;;;;;13.49;50.86;100405.48;1686737;84;21206;-64
2021/04/04 10:20:57;;;;;;;1.80;1.10;;;;;;;13.35;51.80;100413.27;1674560;85;21205;-63
2021/04/04 10:23:34;;;;;;;3.47;1.10;;;;;;;13.35;52.29;100415.92;1639629;87;21870;-64
2021/04/04 10:26:07;;;;;;;2.02;0.90;;;;;;;13.36;52.25;100411.05;1639645;86;21155;-63
2021/04/04 10:29:00;;;;;;;2.83;1.02;;;;;;;13.38;52.24;100412.31;1639736;86;21194;-53
2021/04/04 10:31:24;;;;;;;1.20;0.90;;;;;;;13.37;52.52;100410.14;1666448;86;21329;-53
2021/04/04 10:33:59;;;;;;;0.93;0.70;;;;;;;13.38;52.15;100410.56;1666185;85;21579;-64
2021/04/04 10:36:27;;;;;;;1.27;0.70;;;;;;;13.36;52.11;100412.80;1696226;84;21775;-62
2021/04/04 10:38:57;;;;;;;1.57;0.95;;;;;;;13.30;51.84;100405.02;1676367;84;21603;-62
2021/04/04 10:41:33;;;;;;;3.80;2.30;;;;;;;13.23;51.66;100410.91;1688672;84;21655;-63
2021/04/04 10:44:01;;;;;;;3.33;2.17;;;;;;;13.13;52.13;100412.89;1710791;84;21191;-63
2021/04/04 10:46:31;;;;;;;4.03;3.15;;;;;;;13.11;52.18;100413.37;1703949;83;21300;-63
2021/04/04 10:49:02;;;;;;;7.97;5.87;;;;;;;13.09;52.13;100412.55;1639764;87;21178;-63
2021/04/04 10:51:30;;;;;;;9.33;5.92;;;;;;;13.05;51.95;100412.19;1643597;86;21636;-63
2021/04/04 10:53:59;;;;;;;12.37;8.28;;;;;;;12.89;52.03;100409.02;1666980;85;21618;-63
2021/04/04 10:56:29;;;;;;;10.05;6.97;;;;;;;12.78;52.51;100412.75;1624693;85;21170;-63
2021/04/04 10:59:03;;;;;;;8.58;5.22;;;;;;;12.59;52.70;100417.54;1640789;86;21186;-63
2021/04/04 11:01:33;;;;;;;12.88;8.35;;;;;;;12.41;52.84;100416.56;1666731;85;21289;-62
2021/04/04 11:04:03;;;;;;;19.75;12.43;;;;;;;11.31;55.58;100420.13;1669793;84;21669;-62
2021/04/04 11:06:32;;;;;;;14.38;9.85;;;;;;;11.79;54.80;100412.38;1668234;86;21363;-63
2021/04/04 11:09:01;;;;;;;17.23;12.58;;;;;;;11.94;54.60;100412.56;1668216;86;21630;-63
2021/04/04 11:11:30;;;;;;;13.58;9.80;;;;;;;11.97;54.81;100414.69;1690388;84;21172;-64
2021/04/04 11:13:59;;;;;;;16.55;10.43;;;;;;;12.09;55.04;100414.09;1714837;83;21199;-64
2021/04/04 11:16:28;;;;;;;20.57;11.15;;;;;;;12.24;54.89;100408.97;1726302;83;21179;-63
2021/04/04 11:18:57;;;;;;;11.88;7.50;;;;;;;12.42;54.77;100413.91;1731699;82;21175;-63
2021/04/04 11:21:34;;;;;;;11.60;8.63;;;;;;;12.63;54.93;100410.41;1727141;81;21190;-63
2021/04/04 11:24:06;;;;;;;8.25;6.42;;;;;;;12.84;54.56;100409.09;1717751;81;21236;-53
2021/04/04 11:26:36;;;;;;;9.63;8.50;;;;;;;12.99;54.36;100407.92;1733380;81;21150;-53
2021/04/04 11:29:09;;;;;;;6.40;5.55;;;;;;;13.15;53.95;100408.45;1744941;81;21162;-52
2021/04/04 11:31:38;;;;;;;4.87;3.80;;;;;;;13.23;53.46;100412.23;1734090;82;21310;-52
2021/04/04 11:34:26;;;;;;;4.50;2.67;;;;;;;13.29;53.26;100411.20;1713494;84;21206;-53
2021/04/04 11:36:54;;;;;;;5.22;4.00;;;;;;;13.34;53.01;100410.22;1728955;82;21166;-52
2021/04/04 11:39:22;;;;;;;8.80;5.25;;;;;;;13.39;52.98;100409.66;1734833;82;21182;-53
2021/04/04 11:41:52;;;;;;;9.18;4.53;;;;;;;13.46;52.70;100410.88;1724295;82;21772;-53
2021/04/04 11:47:03;;;;;;;6.90;4.28;;;;;;;13.69;51.88;100407.63;1816444;77;22469;-51
2021/04/04 11:49:42;;;;;;;7.42;3.83;;;;;;;13.57;51.92;100406.17;1776509;80;21534;-51
2021/04/04 11:52:18;;;;;;;4.45;2.87;;;;;;;13.59;51.68;100407.00;1730508;83;21182;-52
2021/04/04 11:54:52;;;;;;;6.55;3.33;;;;;;;13.64;51.65;100405.59;1734559;80;21134;-52
2021/04/04 11:57:27;;;;;;;5.97;3.70;;;;;;;13.55;51.50;100402.69;1760655;81;21154;-52
2021/04/04 12:00:11;;;;;;;6.15;3.12;;;;;;;13.38;51.13;100409.67;1751679;80;21887;-52
2021/04/04 12:02:59;;;;;;;2.90;1.95;;;;;;;13.26;51.41;100408.19;1727231;83;21149;-52
2021/04/04 12:05:37;;;;;;;2.52;1.70;;;;;;;13.21;51.85;100408.75;1745685;81;21749;-50
2021/04/04 12:08:05;;;;;;;5.42;4.28;;;;;;;13.11;51.98;100413.37;1741436;80;21186;-51
2021/04/04 12:10:37;;;;;;;7.83;6.47;;;;;;;12.99;51.81;100414.96;1748825;80;21287;-51